sensor_id;sensor_type;location;lat;lon;timestamp;temperature;humidity
18577;DHT22;9418;52.694;13.294;2023-03-14T00:01:43;11.90;99.90
18577;DHT22;9418;52.694;13.294;2023-03-14T00:04:10;11.80;99.90
18577;DHT22;9418;52.694;13.294;2023-03-14T00:06:36;11.90;99.90
18577;DHT22;9418;52.694;13.294;2023-03-14T00:09:03;11.80;99.90
18577;DHT22;9418;52.694;13.294;2023-03-14T00:11:30;11.80;99.90
18577;DHT22;9418;52.694;13.294;2023-03-14T00:13:58;11.80;99.90
18577;DHT22;9418;52.694;13.294;2023-03-14T00:16:25;11.80;99.90
18577;DHT22;9418;52.694;13.294;2023-03-14T00:18:52;11.70;99.90
18577;DHT22;9418;52.694;13.294;2023-03-14T00:21:18;11.70;99.90
18577;DHT22;9418;52.694;13.294;2023-03-14T00:23:45;11.70;99.90
18577;DHT22;9418;52.694;13.294;2023-03-14T00:26:13;11.60;99.90
18577;DHT22;9418;52.694;13.294;2023-03-14T00:28:41;11.70;99.90
18577;DHT22;9418;52.694;13.294;2023-03-14T00:31:11;11.70;99.90
18577;DHT22;9418;52.694;13.294;2023-03-14T00:33:38;11.70;99.90
18577;DHT22;9418;52.694;13.294;2023-03-14T00:36:07;11.60;99.90
18577;DHT22;9418;52.694;13.294;2023-03-14T00:38:35;11.60;99.90
18577;DHT22;9418;52.694;13.294;2023-03-14T00:41:03;11.70;99.90
18577;DHT22;9418;52.694;13.294;2023-03-14T00:43:30;11.60;99.90
18577;DHT22;9418;52.694;13.294;2023-03-14T00:45:57;11.60;99.90
18577;DHT22;9418;52.694;13.294;2023-03-14T00:48:25;11.50;99.90
18577;DHT22;9418;52.694;13.294;2023-03-14T00:50:51;11.60;99.90
18577;DHT22;9418;52.694;13.294;2023-03-14T00:53:18;11.50;99.90
18577;DHT22;9418;52.694;13.294;2023-03-14T00:55:45;11.50;99.90
18577;DHT22;9418;52.694;13.294;2023-03-14T00:58:13;11.40;99.90
18577;DHT22;9418;52.694;13.294;2023-03-14T01:00:40;11.50;99.90
18577;DHT22;9418;52.694;13.294;2023-03-14T01:03:08;11.50;99.90
18577;DHT22;9418;52.694;13.294;2023-03-14T01:05:36;11.40;99.90
18577;DHT22;9418;52.694;13.294;2023-03-14T01:08:04;11.40;99.90
18577;DHT22;9418;52.694;13.294;2023-03-14T01:10:32;11.40;99.90
18577;DHT22;9418;52.694;13.294;2023-03-14T01:12:59;11.40;99.90
18577;DHT22;9418;52.694;13.294;2023-03-14T01:15:25;11.40;99.90
18577;DHT22;9418;52.694;13.294;2023-03-14T01:17:52;11.30;99.90
18577;DHT22;9418;52.694;13.294;2023-03-14T01:20:19;11.30;99.90
18577;DHT22;9418;52.694;13.294;2023-03-14T01:22:47;11.30;99.90
18577;DHT22;9418;52.694;13.294;2023-03-14T01:25:15;11.30;99.90
18577;DHT22;9418;52.694;13.294;2023-03-14T01:27:41;11.30;99.90
18577;DHT22;9418;52.694;13.294;2023-03-14T01:30:10;11.40;99.90
18577;DHT22;9418;52.694;13.294;2023-03-14T01:32:37;11.30;99.90
18577;DHT22;9418;52.694;13.294;2023-03-14T01:35:05;11.30;99.90
18577;DHT22;9418;52.694;13.294;2023-03-14T01:37:31;11.30;99.90
18577;DHT22;9418;52.694;13.294;2023-03-14T01:39:59;11.40;99.90
18577;DHT22;9418;52.694;13.294;2023-03-14T01:42:26;11.40;99.90
18577;DHT22;9418;52.694;13.294;2023-03-14T01:44:54;11.40;99.90
18577;DHT22;9418;52.694;13.294;2023-03-14T01:47:23;11.40;99.90
18577;DHT22;9418;52.694;13.294;2023-03-14T01:49:51;11.40;99.90
18577;DHT22;9418;52.694;13.294;2023-03-14T01:52:22;11.40;99.90
18577;DHT22;9418;52.694;13.294;2023-03-14T01:54:51;11.40;99.90
18577;DHT22;9418;52.694;13.294;2023-03-14T01:57:24;11.30;99.90
18577;DHT22;9418;52.694;13.294;2023-03-14T01:59:55;11.30;99.90
18577;DHT22;9418;52.694;13.294;2023-03-14T02:02:23;11.20;99.90
18577;DHT22;9418;52.694;13.294;2023-03-14T02:04:51;11.20;99.90
18577;DHT22;9418;52.694;13.294;2023-03-14T02:07:20;11.20;99.90
18577;DHT22;9418;52.694;13.294;2023-03-14T02:09:49;11.20;99.90
18577;DHT22;9418;52.694;13.294;2023-03-14T02:12:17;11.20;99.90
18577;DHT22;9418;52.694;13.294;2023-03-14T02:14:45;11.20;99.90
18577;DHT22;9418;52.694;13.294;2023-03-14T02:17:14;11.10;99.90
18577;DHT22;9418;52.694;13.294;2023-03-14T02:19:57;11.10;99.90
18577;DHT22;9418;52.694;13.294;2023-03-14T02:22:26;11.10;99.90
18577;DHT22;9418;52.694;13.294;2023-03-14T02:24:59;11.10;99.90
18577;DHT22;9418;52.694;13.294;2023-03-14T02:27:30;11.10;99.90
18577;DHT22;9418;52.694;13.294;2023-03-14T02:29:59;11.10;99.90
18577;DHT22;9418;52.694;13.294;2023-03-14T02:32:27;11.10;99.90
18577;DHT22;9418;52.694;13.294;2023-03-14T02:34:57;11.20;99.90
18577;DHT22;9418;52.694;13.294;2023-03-14T02:37:27;11.20;99.90
18577;DHT22;9418;52.694;13.294;2023-03-14T02:39:57;11.20;99.90
18577;DHT22;9418;52.694;13.294;2023-03-14T02:42:23;11.10;99.90
18577;DHT22;9418;52.694;13.294;2023-03-14T02:44:54;11.10;99.90
18577;DHT22;9418;52.694;13.294;2023-03-14T02:47:26;11.10;99.90
18577;DHT22;9418;52.694;13.294;2023-03-14T02:49:58;11.10;99.90
18577;DHT22;9418;52.694;13.294;2023-03-14T02:52:25;11.10;99.90
18577;DHT22;9418;52.694;13.294;2023-03-14T02:54:52;11.00;99.90
18577;DHT22;9418;52.694;13.294;2023-03-14T02:57:18;11.10;99.90
18577;DHT22;9418;52.694;13.294;2023-03-14T02:59:45;11.10;99.90
18577;DHT22;9418;52.694;13.294;2023-03-14T03:02:13;11.10;99.90
18577;DHT22;9418;52.694;13.294;2023-03-14T03:04:39;11.00;99.90
18577;DHT22;9418;52.694;13.294;2023-03-14T03:07:06;11.00;99.90
18577;DHT22;9418;52.694;13.294;2023-03-14T03:09:33;11.00;99.90
18577;DHT22;9418;52.694;13.294;2023-03-14T03:11:59;11.00;99.90
18577;DHT22;9418;52.694;13.294;2023-03-14T03:14:26;11.00;99.90
18577;DHT22;9418;52.694;13.294;2023-03-14T03:16:52;10.90;99.90
18577;DHT22;9418;52.694;13.294;2023-03-14T03:19:20;10.90;99.90
18577;DHT22;9418;52.694;13.294;2023-03-14T03:21:47;10.90;99.90
18577;DHT22;9418;52.694;13.294;2023-03-14T03:24:13;11.00;99.90
18577;DHT22;9418;52.694;13.294;2023-03-14T03:26:40;10.90;99.90
18577;DHT22;9418;52.694;13.294;2023-03-14T03:29:07;10.90;99.90
18577;DHT22;9418;52.694;13.294;2023-03-14T03:31:33;10.90;99.90
18577;DHT22;9418;52.694;13.294;2023-03-14T03:34:02;10.90;99.90
18577;DHT22;9418;52.694;13.294;2023-03-14T03:36:30;10.90;99.90
18577;DHT22;9418;52.694;13.294;2023-03-14T03:38:57;10.90;99.90
18577;DHT22;9418;52.694;13.294;2023-03-14T03:41:23;10.90;99.90
18577;DHT22;9418;52.694;13.294;2023-03-14T03:43:50;10.80;99.90
18577;DHT22;9418;52.694;13.294;2023-03-14T03:46:16;10.80;99.90
18577;DHT22;9418;52.694;13.294;2023-03-14T03:48:43;10.80;99.90
18577;DHT22;9418;52.694;13.294;2023-03-14T03:51:12;10.90;99.90
18577;DHT22;9418;52.694;13.294;2023-03-14T03:53:40;10.90;99.90
18577;DHT22;9418;52.694;13.294;2023-03-14T03:56:08;10.90;99.90
18577;DHT22;9418;52.694;13.294;2023-03-14T03:58:35;10.90;99.90
18577;DHT22;9418;52.694;13.294;2023-03-14T04:01:04;10.80;99.90
18577;DHT22;9418;52.694;13.294;2023-03-14T04:03:31;10.80;99.90
18577;DHT22;9418;52.694;13.294;2023-03-14T04:05:58;10.80;99.90
18577;DHT22;9418;52.694;13.294;2023-03-14T04:08:25;10.80;99.90
18577;DHT22;9418;52.694;13.294;2023-03-14T04:10:55;10.80;99.90
18577;DHT22;9418;52.694;13.294;2023-03-14T04:13:23;10.80;99.90
18577;DHT22;9418;52.694;13.294;2023-03-14T04:15:50;10.80;99.90
18577;DHT22;9418;52.694;13.294;2023-03-14T04:18:17;10.80;99.90
18577;DHT22;9418;52.694;13.294;2023-03-14T04:20:43;10.80;99.90
18577;DHT22;9418;52.694;13.294;2023-03-14T04:23:11;10.80;99.90
18577;DHT22;9418;52.694;13.294;2023-03-14T04:25:37;10.80;99.90
18577;DHT22;9418;52.694;13.294;2023-03-14T04:28:05;10.80;99.90
18577;DHT22;9418;52.694;13.294;2023-03-14T04:30:32;10.80;99.90
18577;DHT22;9418;52.694;13.294;2023-03-14T04:32:58;10.80;99.90
18577;DHT22;9418;52.694;13.294;2023-03-14T04:35:25;10.80;99.90
18577;DHT22;9418;52.694;13.294;2023-03-14T04:37:51;10.70;99.90
18577;DHT22;9418;52.694;13.294;2023-03-14T04:40:18;10.70;99.90
18577;DHT22;9418;52.694;13.294;2023-03-14T04:42:45;10.70;99.90
18577;DHT22;9418;52.694;13.294;2023-03-14T04:45:13;10.80;99.90
18577;DHT22;9418;52.694;13.294;2023-03-14T04:47:39;10.80;99.90
18577;DHT22;9418;52.694;13.294;2023-03-14T04:50:07;10.70;99.90
18577;DHT22;9418;52.694;13.294;2023-03-14T04:52:33;10.70;99.90
18577;DHT22;9418;52.694;13.294;2023-03-14T04:55:00;10.80;99.90
18577;DHT22;9418;52.694;13.294;2023-03-14T04:57:27;10.80;99.90
18577;DHT22;9418;52.694;13.294;2023-03-14T04:59:53;10.70;99.90
18577;DHT22;9418;52.694;13.294;2023-03-14T05:02:21;10.70;99.90
18577;DHT22;9418;52.694;13.294;2023-03-14T05:04:48;10.80;99.90
18577;DHT22;9418;52.694;13.294;2023-03-14T05:07:14;10.70;99.90
18577;DHT22;9418;52.694;13.294;2023-03-14T05:09:41;10.70;99.90
18577;DHT22;9418;52.694;13.294;2023-03-14T05:12:07;10.70;99.90
18577;DHT22;9418;52.694;13.294;2023-03-14T05:14:34;10.70;99.90
18577;DHT22;9418;52.694;13.294;2023-03-14T05:17:01;10.80;99.90
18577;DHT22;9418;52.694;13.294;2023-03-14T05:19:29;10.70;99.90
18577;DHT22;9418;52.694;13.294;2023-03-14T05:21:55;10.80;95.30
18577;DHT22;9418;52.694;13.294;2023-03-14T05:24:22;10.80;90.00
18577;DHT22;9418;52.694;13.294;2023-03-14T05:26:48;10.80;84.70
18577;DHT22;9418;52.694;13.294;2023-03-14T05:29:15;10.80;80.60
18577;DHT22;9418;52.694;13.294;2023-03-14T05:31:42;10.80;20.90
18577;DHT22;9418;52.694;13.294;2023-03-14T05:34:08;10.80;21.20
18577;DHT22;9418;52.694;13.294;2023-03-14T05:36:36;10.80;24.90
18577;DHT22;9418;52.694;13.294;2023-03-14T05:39:03;10.80;24.90
18577;DHT22;9418;52.694;13.294;2023-03-14T05:41:29;10.80;25.60
18577;DHT22;9418;52.694;13.294;2023-03-14T05:43:56;10.80;26.10
18577;DHT22;9418;52.694;13.294;2023-03-14T05:46:23;10.80;28.00
18577;DHT22;9418;52.694;13.294;2023-03-14T05:48:49;10.80;32.60
18577;DHT22;9418;52.694;13.294;2023-03-14T05:51:16;10.90;31.50
18577;DHT22;9418;52.694;13.294;2023-03-14T05:53:44;10.90;32.80
18577;DHT22;9418;52.694;13.294;2023-03-14T05:56:10;10.90;33.90
18577;DHT22;9418;52.694;13.294;2023-03-14T05:58:37;10.80;34.60
18577;DHT22;9418;52.694;13.294;2023-03-14T06:01:05;10.80;34.80
18577;DHT22;9418;52.694;13.294;2023-03-14T06:03:32;10.80;38.20
18577;DHT22;9418;52.694;13.294;2023-03-14T06:05:58;10.80;36.20
18577;DHT22;9418;52.694;13.294;2023-03-14T06:08:25;10.80;38.40
18577;DHT22;9418;52.694;13.294;2023-03-14T06:10:53;10.80;41.20
18577;DHT22;9418;52.694;13.294;2023-03-14T06:13:20;10.80;43.70
18577;DHT22;9418;52.694;13.294;2023-03-14T06:15:47;10.80;43.60
18577;DHT22;9418;52.694;13.294;2023-03-14T06:18:14;10.80;46.10
18577;DHT22;9418;52.694;13.294;2023-03-14T06:20:40;10.80;47.50
18577;DHT22;9418;52.694;13.294;2023-03-14T06:23:08;10.90;54.20
18577;DHT22;9418;52.694;13.294;2023-03-14T06:25:35;10.90;56.10
18577;DHT22;9418;52.694;13.294;2023-03-14T06:28:03;10.90;59.60
18577;DHT22;9418;52.694;13.294;2023-03-14T06:30:30;10.90;60.20
18577;DHT22;9418;52.694;13.294;2023-03-14T06:32:57;11.00;63.20
18577;DHT22;9418;52.694;13.294;2023-03-14T06:35:23;11.00;67.00
18577;DHT22;9418;52.694;13.294;2023-03-14T06:37:50;11.00;71.60
18577;DHT22;9418;52.694;13.294;2023-03-14T06:40:17;11.10;78.70
18577;DHT22;9418;52.694;13.294;2023-03-14T06:42:44;11.20;84.90
18577;DHT22;9418;52.694;13.294;2023-03-14T06:45:13;11.20;87.90
18577;DHT22;9418;52.694;13.294;2023-03-14T06:47:39;11.20;90.50
18577;DHT22;9418;52.694;13.294;2023-03-14T06:50:07;11.30;93.70
18577;DHT22;9418;52.694;13.294;2023-03-14T06:52:34;11.30;94.90
18577;DHT22;9418;52.694;13.294;2023-03-14T06:55:01;11.30;95.40
18577;DHT22;9418;52.694;13.294;2023-03-14T06:57:28;11.30;99.90
18577;DHT22;9418;52.694;13.294;2023-03-14T06:59:54;11.40;99.90
18577;DHT22;9418;52.694;13.294;2023-03-14T07:02:22;11.40;99.90
18577;DHT22;9418;52.694;13.294;2023-03-14T07:04:49;11.50;99.90
18577;DHT22;9418;52.694;13.294;2023-03-14T07:07:15;11.50;99.90
18577;DHT22;9418;52.694;13.294;2023-03-14T07:09:42;11.60;99.90
18577;DHT22;9418;52.694;13.294;2023-03-14T07:12:09;11.70;99.90
18577;DHT22;9418;52.694;13.294;2023-03-14T07:14:35;11.70;99.90
18577;DHT22;9418;52.694;13.294;2023-03-14T07:17:02;11.70;99.90
18577;DHT22;9418;52.694;13.294;2023-03-14T07:19:30;11.70;99.90
18577;DHT22;9418;52.694;13.294;2023-03-14T07:21:56;11.60;99.90
18577;DHT22;9418;52.694;13.294;2023-03-14T07:24:23;11.60;99.90
18577;DHT22;9418;52.694;13.294;2023-03-14T07:26:50;11.70;99.90
18577;DHT22;9418;52.694;13.294;2023-03-14T07:29:16;11.80;99.90
18577;DHT22;9418;52.694;13.294;2023-03-14T07:31:43;11.90;99.90
18577;DHT22;9418;52.694;13.294;2023-03-14T07:34:10;12.00;99.90
18577;DHT22;9418;52.694;13.294;2023-03-14T07:36:37;12.20;99.90
18577;DHT22;9418;52.694;13.294;2023-03-14T07:39:04;12.30;99.90
18577;DHT22;9418;52.694;13.294;2023-03-14T07:41:31;12.30;99.90
18577;DHT22;9418;52.694;13.294;2023-03-14T07:43:58;12.20;99.90
18577;DHT22;9418;52.694;13.294;2023-03-14T07:46:24;12.50;99.90
18577;DHT22;9418;52.694;13.294;2023-03-14T07:48:51;12.70;99.90
18577;DHT22;9418;52.694;13.294;2023-03-14T07:51:17;12.90;99.90
18577;DHT22;9418;52.694;13.294;2023-03-14T07:53:45;12.80;99.90
18577;DHT22;9418;52.694;13.294;2023-03-14T07:56:12;12.60;99.90
18577;DHT22;9418;52.694;13.294;2023-03-14T07:58:39;12.70;99.90
18577;DHT22;9418;52.694;13.294;2023-03-14T08:01:05;12.50;99.90
18577;DHT22;9418;52.694;13.294;2023-03-14T08:03:32;12.60;99.90
18577;DHT22;9418;52.694;13.294;2023-03-14T08:05:59;12.80;99.90
18577;DHT22;9418;52.694;13.294;2023-03-14T08:08:25;13.00;99.90
18577;DHT22;9418;52.694;13.294;2023-03-14T08:10:53;13.00;99.90
18577;DHT22;9418;52.694;13.294;2023-03-14T08:13:20;13.00;99.90
18577;DHT22;9418;52.694;13.294;2023-03-14T08:15:48;12.80;99.90
18577;DHT22;9418;52.694;13.294;2023-03-14T08:18:14;12.80;99.90
18577;DHT22;9418;52.694;13.294;2023-03-14T08:20:41;12.80;99.90
18577;DHT22;9418;52.694;13.294;2023-03-14T08:23:08;12.80;99.90
18577;DHT22;9418;52.694;13.294;2023-03-14T08:25:34;12.70;99.90
18577;DHT22;9418;52.694;13.294;2023-03-14T08:28:02;12.80;99.90
18577;DHT22;9418;52.694;13.294;2023-03-14T08:30:29;13.30;27.70
18577;DHT22;9418;52.694;13.294;2023-03-14T08:32:56;13.80;37.20
18577;DHT22;9418;52.694;13.294;2023-03-14T08:35:24;13.70;58.70
18577;DHT22;9418;52.694;13.294;2023-03-14T08:37:50;13.60;52.40
18577;DHT22;9418;52.694;13.294;2023-03-14T08:40:18;13.50;49.70
18577;DHT22;9418;52.694;13.294;2023-03-14T08:42:45;13.30;46.20
18577;DHT22;9418;52.694;13.294;2023-03-14T08:45:15;13.20;37.50
18577;DHT22;9418;52.694;13.294;2023-03-14T08:47:42;13.20;38.00
18577;DHT22;9418;52.694;13.294;2023-03-14T08:50:10;13.20;39.90
18577;DHT22;9418;52.694;13.294;2023-03-14T08:52:38;13.30;38.10
18577;DHT22;9418;52.694;13.294;2023-03-14T08:55:06;13.80;49.80
18577;DHT22;9418;52.694;13.294;2023-03-14T08:57:33;14.70;80.30
18577;DHT22;9418;52.694;13.294;2023-03-14T09:00:00;14.10;75.30
18577;DHT22;9418;52.694;13.294;2023-03-14T09:02:28;13.80;61.80
18577;DHT22;9418;52.694;13.294;2023-03-14T09:04:54;13.60;51.00
18577;DHT22;9418;52.694;13.294;2023-03-14T09:07:21;13.60;47.90
18577;DHT22;9418;52.694;13.294;2023-03-14T09:09:47;13.30;45.10
18577;DHT22;9418;52.694;13.294;2023-03-14T09:12:14;13.20;44.40
18577;DHT22;9418;52.694;13.294;2023-03-14T09:14:40;13.30;39.60
18577;DHT22;9418;52.694;13.294;2023-03-14T09:17:07;13.90;51.90
18577;DHT22;9418;52.694;13.294;2023-03-14T09:19:35;14.70;76.10
18577;DHT22;9418;52.694;13.294;2023-03-14T09:22:02;14.90;92.30
18577;DHT22;9418;52.694;13.294;2023-03-14T09:24:29;16.30;99.90
18577;DHT22;9418;52.694;13.294;2023-03-14T09:26:56;17.40;99.90
18577;DHT22;9418;52.694;13.294;2023-03-14T09:29:23;17.00;99.90
18577;DHT22;9418;52.694;13.294;2023-03-14T09:31:50;16.10;99.90
18577;DHT22;9418;52.694;13.294;2023-03-14T09:34:17;15.10;99.90
18577;DHT22;9418;52.694;13.294;2023-03-14T09:36:45;14.30;99.90
18577;DHT22;9418;52.694;13.294;2023-03-14T09:39:12;14.10;99.90
18577;DHT22;9418;52.694;13.294;2023-03-14T09:41:41;14.20;99.90
18577;DHT22;9418;52.694;13.294;2023-03-14T09:44:13;14.00;99.90
18577;DHT22;9418;52.694;13.294;2023-03-14T09:46:43;14.10;99.90
18577;DHT22;9418;52.694;13.294;2023-03-14T09:49:19;14.10;99.90
18577;DHT22;9418;52.694;13.294;2023-03-14T09:51:50;14.00;99.90
18577;DHT22;9418;52.694;13.294;2023-03-14T09:54:28;13.80;98.70
18577;DHT22;9418;52.694;13.294;2023-03-14T09:56:56;13.60;98.50
18577;DHT22;9418;52.694;13.294;2023-03-14T09:59:22;13.50;98.30
18577;DHT22;9418;52.694;13.294;2023-03-14T10:01:49;13.50;97.00
18577;DHT22;9418;52.694;13.294;2023-03-14T10:04:21;13.50;91.30
18577;DHT22;9418;52.694;13.294;2023-03-14T10:06:50;13.50;90.70
18577;DHT22;9418;52.694;13.294;2023-03-14T10:09:19;13.60;91.50
18577;DHT22;9418;52.694;13.294;2023-03-14T10:11:54;13.60;93.00
18577;DHT22;9418;52.694;13.294;2023-03-14T10:14:30;13.60;95.00
18577;DHT22;9418;52.694;13.294;2023-03-14T10:17:04;13.60;99.40
18577;DHT22;9418;52.694;13.294;2023-03-14T10:19:32;13.50;98.20
18577;DHT22;9418;52.694;13.294;2023-03-14T10:22:03;13.50;96.40
18577;DHT22;9418;52.694;13.294;2023-03-14T10:24:31;13.40;96.50
18577;DHT22;9418;52.694;13.294;2023-03-14T10:27:00;13.30;94.30
18577;DHT22;9418;52.694;13.294;2023-03-14T10:29:28;13.30;94.20
18577;DHT22;9418;52.694;13.294;2023-03-14T10:31:59;13.30;95.00
18577;DHT22;9418;52.694;13.294;2023-03-14T10:34:29;13.30;93.90
18577;DHT22;9418;52.694;13.294;2023-03-14T10:36:57;13.30;95.00
18577;DHT22;9418;52.694;13.294;2023-03-14T10:39:34;13.30;93.70
18577;DHT22;9418;52.694;13.294;2023-03-14T10:42:06;13.30;92.70
18577;DHT22;9418;52.694;13.294;2023-03-14T10:44:38;13.30;90.40
18577;DHT22;9418;52.694;13.294;2023-03-14T10:47:06;13.20;94.90
18577;DHT22;9418;52.694;13.294;2023-03-14T10:49:34;13.20;99.10
18577;DHT22;9418;52.694;13.294;2023-03-14T10:52:10;13.20;99.70
18577;DHT22;9418;52.694;13.294;2023-03-14T10:54:40;13.20;99.90
18577;DHT22;9418;52.694;13.294;2023-03-14T10:57:11;13.20;99.90
18577;DHT22;9418;52.694;13.294;2023-03-14T10:59:39;13.20;99.90
18577;DHT22;9418;52.694;13.294;2023-03-14T11:02:26;13.20;99.90
18577;DHT22;9418;52.694;13.294;2023-03-14T11:05:03;13.20;99.90
18577;DHT22;9418;52.694;13.294;2023-03-14T11:07:38;13.20;99.50
18577;DHT22;9418;52.694;13.294;2023-03-14T11:10:14;13.20;99.90
18577;DHT22;9418;52.694;13.294;2023-03-14T11:12:52;13.20;99.90
18577;DHT22;9418;52.694;13.294;2023-03-14T11:15:27;13.20;99.90
18577;DHT22;9418;52.694;13.294;2023-03-14T11:18:09;13.20;97.80
18577;DHT22;9418;52.694;13.294;2023-03-14T11:20:42;13.20;94.10
18577;DHT22;9418;52.694;13.294;2023-03-14T11:23:14;13.10;91.70
18577;DHT22;9418;52.694;13.294;2023-03-14T11:25:53;13.10;88.10
18577;DHT22;9418;52.694;13.294;2023-03-14T11:28:27;13.10;87.80
18577;DHT22;9418;52.694;13.294;2023-03-14T11:31:03;13.10;84.30
18577;DHT22;9418;52.694;13.294;2023-03-14T11:33:36;13.10;81.60
18577;DHT22;9418;52.694;13.294;2023-03-14T11:36:06;13.00;82.90
18577;DHT22;9418;52.694;13.294;2023-03-14T11:38:38;13.00;85.70
18577;DHT22;9418;52.694;13.294;2023-03-14T11:41:13;13.00;81.40
18577;DHT22;9418;52.694;13.294;2023-03-14T11:43:41;12.90;80.10
18577;DHT22;9418;52.694;13.294;2023-03-14T11:46:20;12.90;81.60
18577;DHT22;9418;52.694;13.294;2023-03-14T11:48:57;12.90;74.90
18577;DHT22;9418;52.694;13.294;2023-03-14T11:51:29;12.80;59.40
18577;DHT22;9418;52.694;13.294;2023-03-14T11:54:01;12.70;54.80
18577;DHT22;9418;52.694;13.294;2023-03-14T11:56:34;12.70;54.40
18577;DHT22;9418;52.694;13.294;2023-03-14T11:59:09;12.80;63.00
18577;DHT22;9418;52.694;13.294;2023-03-14T12:01:48;12.90;61.60
18577;DHT22;9418;52.694;13.294;2023-03-14T12:04:22;12.90;45.20
18577;DHT22;9418;52.694;13.294;2023-03-14T12:06:56;12.70;34.10
18577;DHT22;9418;52.694;13.294;2023-03-14T12:09:27;12.40;99.90
18577;DHT22;9418;52.694;13.294;2023-03-14T12:11:58;12.00;32.50
18577;DHT22;9418;52.694;13.294;2023-03-14T12:14:27;11.80;99.90
18577;DHT22;9418;52.694;13.294;2023-03-14T12:16:56;11.60;99.90
18577;DHT22;9418;52.694;13.294;2023-03-14T12:19:34;11.60;99.90
18577;DHT22;9418;52.694;13.294;2023-03-14T12:22:12;11.70;99.90
18577;DHT22;9418;52.694;13.294;2023-03-14T12:24:47;12.00;99.90
18577;DHT22;9418;52.694;13.294;2023-03-14T12:27:46;12.30;99.90
18577;DHT22;9418;52.694;13.294;2023-03-14T12:30:22;12.70;43.80
18577;DHT22;9418;52.694;13.294;2023-03-14T12:33:20;13.10;44.30
18577;DHT22;9418;52.694;13.294;2023-03-14T12:35:49;13.40;84.20
18577;DHT22;9418;52.694;13.294;2023-03-14T12:38:23;13.80;99.90
18577;DHT22;9418;52.694;13.294;2023-03-14T12:40:58;14.00;99.90
18577;DHT22;9418;52.694;13.294;2023-03-14T12:43:28;13.90;99.90
18577;DHT22;9418;52.694;13.294;2023-03-14T12:46:15;13.80;99.90
18577;DHT22;9418;52.694;13.294;2023-03-14T12:48:46;13.90;99.90
18577;DHT22;9418;52.694;13.294;2023-03-14T12:51:15;14.00;21.30
18577;DHT22;9418;52.694;13.294;2023-03-14T12:54:06;13.80;99.90
18577;DHT22;9418;52.694;13.294;2023-03-14T12:56:45;13.70;29.00
18577;DHT22;9418;52.694;13.294;2023-03-14T12:59:28;13.70;26.60
18577;DHT22;9418;52.694;13.294;2023-03-14T13:01:58;13.80;43.20
18577;DHT22;9418;52.694;13.294;2023-03-14T13:04:28;13.90;43.70
18577;DHT22;9418;52.694;13.294;2023-03-14T13:06:57;14.00;60.10
18577;DHT22;9418;52.694;13.294;2023-03-14T13:10:18;14.30;83.70
18577;DHT22;9418;52.694;13.294;2023-03-14T13:12:49;15.20;99.90
18577;DHT22;9418;52.694;13.294;2023-03-14T13:15:29;15.70;99.90
18577;DHT22;9418;52.694;13.294;2023-03-14T13:18:02;15.40;99.90
18577;DHT22;9418;52.694;13.294;2023-03-14T13:20:31;15.60;99.90
18577;DHT22;9418;52.694;13.294;2023-03-14T13:22:58;15.70;99.90
18577;DHT22;9418;52.694;13.294;2023-03-14T13:25:29;15.80;99.90
18577;DHT22;9418;52.694;13.294;2023-03-14T13:27:56;16.00;99.90
18577;DHT22;9418;52.694;13.294;2023-03-14T13:30:25;15.80;99.90
18577;DHT22;9418;52.694;13.294;2023-03-14T13:32:55;16.50;99.90
18577;DHT22;9418;52.694;13.294;2023-03-14T13:35:24;16.50;99.90
18577;DHT22;9418;52.694;13.294;2023-03-14T13:37:59;16.10;99.90
18577;DHT22;9418;52.694;13.294;2023-03-14T13:40:30;15.60;99.90
18577;DHT22;9418;52.694;13.294;2023-03-14T13:43:10;16.30;99.90
18577;DHT22;9418;52.694;13.294;2023-03-14T13:45:44;16.80;99.90
18577;DHT22;9418;52.694;13.294;2023-03-14T13:48:12;16.60;99.90
18577;DHT22;9418;52.694;13.294;2023-03-14T13:50:45;16.10;99.90
18577;DHT22;9418;52.694;13.294;2023-03-14T13:53:12;16.80;99.90
18577;DHT22;9418;52.694;13.294;2023-03-14T13:55:39;17.30;99.90
18577;DHT22;9418;52.694;13.294;2023-03-14T13:58:10;17.60;99.90
18577;DHT22;9418;52.694;13.294;2023-03-14T14:00:38;16.80;99.90
18577;DHT22;9418;52.694;13.294;2023-03-14T14:03:11;17.10;99.90
18577;DHT22;9418;52.694;13.294;2023-03-14T14:05:39;17.00;99.90
18577;DHT22;9418;52.694;13.294;2023-03-14T14:08:10;16.70;99.90
18577;DHT22;9418;52.694;13.294;2023-03-14T14:10:37;16.60;99.90
18577;DHT22;9418;52.694;13.294;2023-03-14T14:13:08;16.60;99.90
18577;DHT22;9418;52.694;13.294;2023-03-14T14:15:41;16.00;99.90
18577;DHT22;9418;52.694;13.294;2023-03-14T14:18:09;16.00;99.90
18577;DHT22;9418;52.694;13.294;2023-03-14T14:20:41;15.80;99.90
18577;DHT22;9418;52.694;13.294;2023-03-14T14:23:11;15.20;99.90
18577;DHT22;9418;52.694;13.294;2023-03-14T14:25:38;15.10;99.90
18577;DHT22;9418;52.694;13.294;2023-03-14T14:28:15;15.00;99.90
18577;DHT22;9418;52.694;13.294;2023-03-14T14:30:42;14.90;99.90
18577;DHT22;9418;52.694;13.294;2023-03-14T14:33:27;14.70;99.90
18577;DHT22;9418;52.694;13.294;2023-03-14T14:35:56;14.50;99.90
18577;DHT22;9418;52.694;13.294;2023-03-14T14:38:24;14.40;99.90
18577;DHT22;9418;52.694;13.294;2023-03-14T14:40:53;14.30;99.90
18577;DHT22;9418;52.694;13.294;2023-03-14T14:43:23;14.10;99.90
18577;DHT22;9418;52.694;13.294;2023-03-14T14:45:52;13.90;94.90
18577;DHT22;9418;52.694;13.294;2023-03-14T14:48:24;13.40;37.70
18577;DHT22;9418;52.694;13.294;2023-03-14T14:50:59;12.90;99.90
18577;DHT22;9418;52.694;13.294;2023-03-14T14:53:29;12.60;99.90
18577;DHT22;9418;52.694;13.294;2023-03-14T14:55:57;12.40;99.90
18577;DHT22;9418;52.694;13.294;2023-03-14T14:58:26;12.40;99.90
18577;DHT22;9418;52.694;13.294;2023-03-14T15:00:56;12.40;99.90
18577;DHT22;9418;52.694;13.294;2023-03-14T15:03:26;12.30;99.90
18577;DHT22;9418;52.694;13.294;2023-03-14T15:05:54;12.20;99.90
18577;DHT22;9418;52.694;13.294;2023-03-14T15:08:24;11.60;99.90
18577;DHT22;9418;52.694;13.294;2023-03-14T15:10:51;9.60;99.90
18577;DHT22;9418;52.694;13.294;2023-03-14T15:13:18;7.90;99.90
18577;DHT22;9418;52.694;13.294;2023-03-14T15:15:45;7.30;99.90
18577;DHT22;9418;52.694;13.294;2023-03-14T15:18:14;6.80;68.70
18577;DHT22;9418;52.694;13.294;2023-03-14T15:20:41;6.70;49.70
18577;DHT22;9418;52.694;13.294;2023-03-14T15:23:10;6.30;49.00
18577;DHT22;9418;52.694;13.294;2023-03-14T15:25:39;6.00;48.10
18577;DHT22;9418;52.694;13.294;2023-03-14T15:28:13;5.90;35.50
18577;DHT22;9418;52.694;13.294;2023-03-14T15:30:40;5.70;33.80
18577;DHT22;9418;52.694;13.294;2023-03-14T15:33:07;5.50;37.50
18577;DHT22;9418;52.694;13.294;2023-03-14T15:35:34;5.00;55.00
18577;DHT22;9418;52.694;13.294;2023-03-14T15:38:01;4.30;74.10
18577;DHT22;9418;52.694;13.294;2023-03-14T15:40:28;3.60;74.30
18577;DHT22;9418;52.694;13.294;2023-03-14T15:42:56;3.40;73.80
18577;DHT22;9418;52.694;13.294;2023-03-14T15:45:23;3.10;79.50